sensor_id;sensor_type;location;lat;lon;timestamp;temperature;humidity
4811;DHT22;2419;51.276;6.472;2022-10-22T00:01:01;13.40;99.90
4811;DHT22;2419;51.276;6.472;2022-10-22T00:03:29;13.40;99.90
4811;DHT22;2419;51.276;6.472;2022-10-22T00:05:58;13.30;99.90
4811;DHT22;2419;51.276;6.472;2022-10-22T00:08:26;13.30;99.90
4811;DHT22;2419;51.276;6.472;2022-10-22T00:10:54;13.30;99.90
4811;DHT22;2419;51.276;6.472;2022-10-22T00:13:22;13.20;99.90
4811;DHT22;2419;51.276;6.472;2022-10-22T00:15:52;13.20;99.90
4811;DHT22;2419;51.276;6.472;2022-10-22T00:18:20;13.10;99.90
4811;DHT22;2419;51.276;6.472;2022-10-22T00:20:48;13.00;99.90
4811;DHT22;2419;51.276;6.472;2022-10-22T00:23:16;13.10;99.90
4811;DHT22;2419;51.276;6.472;2022-10-22T00:25:44;13.00;99.90
4811;DHT22;2419;51.276;6.472;2022-10-22T00:28:12;13.00;99.90
4811;DHT22;2419;51.276;6.472;2022-10-22T00:30:40;13.10;99.90
4811;DHT22;2419;51.276;6.472;2022-10-22T00:33:10;13.10;99.90
4811;DHT22;2419;51.276;6.472;2022-10-22T00:35:38;13.10;99.90
4811;DHT22;2419;51.276;6.472;2022-10-22T00:38:06;13.10;99.90
4811;DHT22;2419;51.276;6.472;2022-10-22T00:40:34;13.00;99.90
4811;DHT22;2419;51.276;6.472;2022-10-22T00:43:02;13.00;99.90
4811;DHT22;2419;51.276;6.472;2022-10-22T00:45:30;13.00;99.90
4811;DHT22;2419;51.276;6.472;2022-10-22T00:48:00;12.90;99.90
4811;DHT22;2419;51.276;6.472;2022-10-22T00:50:34;12.90;99.90
4811;DHT22;2419;51.276;6.472;2022-10-22T00:53:08;13.00;99.90
4811;DHT22;2419;51.276;6.472;2022-10-22T00:55:38;12.90;99.90
4811;DHT22;2419;51.276;6.472;2022-10-22T00:58:07;12.90;99.90
4811;DHT22;2419;51.276;6.472;2022-10-22T01:00:35;13.00;99.90
4811;DHT22;2419;51.276;6.472;2022-10-22T01:03:04;13.10;99.90
4811;DHT22;2419;51.276;6.472;2022-10-22T01:05:40;13.10;99.90
4811;DHT22;2419;51.276;6.472;2022-10-22T01:08:15;13.10;99.90
4811;DHT22;2419;51.276;6.472;2022-10-22T01:10:52;13.00;99.90
4811;DHT22;2419;51.276;6.472;2022-10-22T01:13:31;13.00;99.90
4811;DHT22;2419;51.276;6.472;2022-10-22T01:16:09;13.00;99.90
4811;DHT22;2419;51.276;6.472;2022-10-22T01:18:46;12.90;99.90
4811;DHT22;2419;51.276;6.472;2022-10-22T01:21:24;12.90;99.90
4811;DHT22;2419;51.276;6.472;2022-10-22T01:24:14;12.90;99.90
4811;DHT22;2419;51.276;6.472;2022-10-22T01:26:57;12.90;99.90
4811;DHT22;2419;51.276;6.472;2022-10-22T01:29:31;12.90;99.90
4811;DHT22;2419;51.276;6.472;2022-10-22T01:32:04;12.90;99.90
4811;DHT22;2419;51.276;6.472;2022-10-22T01:34:34;13.00;99.90
4811;DHT22;2419;51.276;6.472;2022-10-22T01:37:03;12.90;99.90
4811;DHT22;2419;51.276;6.472;2022-10-22T01:39:33;12.90;99.90
4811;DHT22;2419;51.276;6.472;2022-10-22T01:42:01;12.90;99.90
4811;DHT22;2419;51.276;6.472;2022-10-22T01:44:32;12.80;99.90
4811;DHT22;2419;51.276;6.472;2022-10-22T01:47:16;12.80;99.90
4811;DHT22;2419;51.276;6.472;2022-10-22T01:50:08;12.80;99.90
4811;DHT22;2419;51.276;6.472;2022-10-22T01:52:51;12.70;99.90
4811;DHT22;2419;51.276;6.472;2022-10-22T01:55:27;12.70;99.90
4811;DHT22;2419;51.276;6.472;2022-10-22T01:58:04;12.70;99.90
4811;DHT22;2419;51.276;6.472;2022-10-22T02:00:39;12.70;99.90
4811;DHT22;2419;51.276;6.472;2022-10-22T02:03:15;12.80;99.90
4811;DHT22;2419;51.276;6.472;2022-10-22T02:05:53;12.80;99.90
4811;DHT22;2419;51.276;6.472;2022-10-22T02:08:24;12.90;99.90
4811;DHT22;2419;51.276;6.472;2022-10-22T02:10:54;12.80;99.90
4811;DHT22;2419;51.276;6.472;2022-10-22T02:13:27;12.70;99.90
4811;DHT22;2419;51.276;6.472;2022-10-22T02:15:58;12.70;99.90
4811;DHT22;2419;51.276;6.472;2022-10-22T02:18:30;12.80;99.90
4811;DHT22;2419;51.276;6.472;2022-10-22T02:21:05;12.80;99.90
4811;DHT22;2419;51.276;6.472;2022-10-22T02:23:38;12.80;99.90
4811;DHT22;2419;51.276;6.472;2022-10-22T02:26:15;12.80;99.90
4811;DHT22;2419;51.276;6.472;2022-10-22T02:28:51;12.70;99.90
4811;DHT22;2419;51.276;6.472;2022-10-22T02:31:23;12.80;99.90
4811;DHT22;2419;51.276;6.472;2022-10-22T02:33:55;12.80;99.90
4811;DHT22;2419;51.276;6.472;2022-10-22T02:36:25;12.70;99.90
4811;DHT22;2419;51.276;6.472;2022-10-22T02:38:54;12.70;99.90
4811;DHT22;2419;51.276;6.472;2022-10-22T02:41:22;12.80;99.90
4811;DHT22;2419;51.276;6.472;2022-10-22T02:43:53;12.70;99.90
4811;DHT22;2419;51.276;6.472;2022-10-22T02:46:23;12.70;99.90
4811;DHT22;2419;51.276;6.472;2022-10-22T02:48:52;12.70;99.90
4811;DHT22;2419;51.276;6.472;2022-10-22T02:51:20;12.60;99.90
4811;DHT22;2419;51.276;6.472;2022-10-22T02:53:48;12.60;99.90
4811;DHT22;2419;51.276;6.472;2022-10-22T02:56:16;12.50;99.90
4811;DHT22;2419;51.276;6.472;2022-10-22T02:58:44;12.50;99.90
4811;DHT22;2419;51.276;6.472;2022-10-22T03:01:12;12.60;99.90
4811;DHT22;2419;51.276;6.472;2022-10-22T03:03:43;12.60;99.90
4811;DHT22;2419;51.276;6.472;2022-10-22T03:06:11;12.50;99.90
4811;DHT22;2419;51.276;6.472;2022-10-22T03:08:39;12.60;99.90
4811;DHT22;2419;51.276;6.472;2022-10-22T03:11:08;12.60;99.90
4811;DHT22;2419;51.276;6.472;2022-10-22T03:13:36;12.60;99.90
4811;DHT22;2419;51.276;6.472;2022-10-22T03:16:04;12.60;99.90
4811;DHT22;2419;51.276;6.472;2022-10-22T03:18:32;12.50;99.90
4811;DHT22;2419;51.276;6.472;2022-10-22T03:21:07;12.40;99.90
4811;DHT22;2419;51.276;6.472;2022-10-22T03:23:36;12.30;99.90
4811;DHT22;2419;51.276;6.472;2022-10-22T03:26:06;12.30;99.90
4811;DHT22;2419;51.276;6.472;2022-10-22T03:28:35;12.40;99.90
4811;DHT22;2419;51.276;6.472;2022-10-22T03:31:03;12.50;99.90
4811;DHT22;2419;51.276;6.472;2022-10-22T03:33:31;12.50;99.90
4811;DHT22;2419;51.276;6.472;2022-10-22T03:36:00;12.50;99.90
4811;DHT22;2419;51.276;6.472;2022-10-22T03:38:29;12.50;99.90
4811;DHT22;2419;51.276;6.472;2022-10-22T03:40:57;12.60;99.90
4811;DHT22;2419;51.276;6.472;2022-10-22T03:43:26;12.60;99.90
4811;DHT22;2419;51.276;6.472;2022-10-22T03:45:54;12.50;99.90
4811;DHT22;2419;51.276;6.472;2022-10-22T03:48:22;12.50;99.90
4811;DHT22;2419;51.276;6.472;2022-10-22T03:50:50;12.50;99.90
4811;DHT22;2419;51.276;6.472;2022-10-22T03:53:18;12.40;99.90
4811;DHT22;2419;51.276;6.472;2022-10-22T03:55:47;12.40;99.90
4811;DHT22;2419;51.276;6.472;2022-10-22T03:58:15;12.30;99.90
4811;DHT22;2419;51.276;6.472;2022-10-22T04:00:43;12.40;99.90
4811;DHT22;2419;51.276;6.472;2022-10-22T04:03:12;12.40;99.90
4811;DHT22;2419;51.276;6.472;2022-10-22T04:05:40;12.40;99.90
4811;DHT22;2419;51.276;6.472;2022-10-22T04:08:08;12.30;99.90
4811;DHT22;2419;51.276;6.472;2022-10-22T04:10:36;12.30;99.90
4811;DHT22;2419;51.276;6.472;2022-10-22T04:13:05;12.40;99.90
4811;DHT22;2419;51.276;6.472;2022-10-22T04:15:33;12.40;99.90
4811;DHT22;2419;51.276;6.472;2022-10-22T04:18:01;12.50;99.90
4811;DHT22;2419;51.276;6.472;2022-10-22T04:20:29;12.60;99.90
4811;DHT22;2419;51.276;6.472;2022-10-22T04:22:57;12.50;99.90
4811;DHT22;2419;51.276;6.472;2022-10-22T04:25:25;12.60;99.90
4811;DHT22;2419;51.276;6.472;2022-10-22T04:27:53;12.60;99.90
4811;DHT22;2419;51.276;6.472;2022-10-22T04:30:23;12.50;99.90
4811;DHT22;2419;51.276;6.472;2022-10-22T04:32:51;12.50;99.90
4811;DHT22;2419;51.276;6.472;2022-10-22T04:35:19;12.50;99.90
4811;DHT22;2419;51.276;6.472;2022-10-22T04:37:47;12.50;99.90
4811;DHT22;2419;51.276;6.472;2022-10-22T04:40:15;12.40;99.90
4811;DHT22;2419;51.276;6.472;2022-10-22T04:42:43;12.50;99.90
4811;DHT22;2419;51.276;6.472;2022-10-22T04:45:11;12.50;99.90
4811;DHT22;2419;51.276;6.472;2022-10-22T04:47:42;12.40;99.90
4811;DHT22;2419;51.276;6.472;2022-10-22T04:50:11;12.40;99.90
4811;DHT22;2419;51.276;6.472;2022-10-22T04:52:39;12.30;99.90
4811;DHT22;2419;51.276;6.472;2022-10-22T04:55:07;12.30;99.90
4811;DHT22;2419;51.276;6.472;2022-10-22T04:57:35;12.30;99.90
4811;DHT22;2419;51.276;6.472;2022-10-22T05:00:05;12.30;99.90
4811;DHT22;2419;51.276;6.472;2022-10-22T05:02:33;12.30;99.90
4811;DHT22;2419;51.276;6.472;2022-10-22T05:05:03;12.30;99.90
4811;DHT22;2419;51.276;6.472;2022-10-22T05:07:31;12.30;99.90
4811;DHT22;2419;51.276;6.472;2022-10-22T05:09:59;12.30;99.90
4811;DHT22;2419;51.276;6.472;2022-10-22T05:12:28;12.30;99.90
4811;DHT22;2419;51.276;6.472;2022-10-22T05:14:56;12.30;99.90
4811;DHT22;2419;51.276;6.472;2022-10-22T05:17:24;12.30;99.90
4811;DHT22;2419;51.276;6.472;2022-10-22T05:19:52;12.30;99.90
4811;DHT22;2419;51.276;6.472;2022-10-22T05:22:22;12.20;99.90
4811;DHT22;2419;51.276;6.472;2022-10-22T05:24:50;12.30;99.90
4811;DHT22;2419;51.276;6.472;2022-10-22T05:27:18;12.30;99.90
4811;DHT22;2419;51.276;6.472;2022-10-22T05:29:46;12.30;99.90
4811;DHT22;2419;51.276;6.472;2022-10-22T05:32:14;12.30;99.90
4811;DHT22;2419;51.276;6.472;2022-10-22T05:34:42;12.20;99.90
4811;DHT22;2419;51.276;6.472;2022-10-22T05:37:10;12.20;99.90
4811;DHT22;2419;51.276;6.472;2022-10-22T05:39:39;12.20;99.90
4811;DHT22;2419;51.276;6.472;2022-10-22T05:42:07;12.20;99.90
4811;DHT22;2419;51.276;6.472;2022-10-22T05:44:36;12.30;99.90
4811;DHT22;2419;51.276;6.472;2022-10-22T05:47:04;12.30;99.90
4811;DHT22;2419;51.276;6.472;2022-10-22T05:49:32;12.20;99.90
4811;DHT22;2419;51.276;6.472;2022-10-22T05:52:00;12.30;99.90
4811;DHT22;2419;51.276;6.472;2022-10-22T05:54:28;12.20;99.90
4811;DHT22;2419;51.276;6.472;2022-10-22T05:56:58;12.30;99.90
4811;DHT22;2419;51.276;6.472;2022-10-22T05:59:26;12.30;99.90
4811;DHT22;2419;51.276;6.472;2022-10-22T06:01:54;12.30;99.90
4811;DHT22;2419;51.276;6.472;2022-10-22T06:04:22;12.30;99.90
4811;DHT22;2419;51.276;6.472;2022-10-22T06:06:51;12.20;99.90
4811;DHT22;2419;51.276;6.472;2022-10-22T06:09:22;12.30;99.90
4811;DHT22;2419;51.276;6.472;2022-10-22T06:11:51;12.30;99.90
4811;DHT22;2419;51.276;6.472;2022-10-22T06:14:20;12.40;99.90
4811;DHT22;2419;51.276;6.472;2022-10-22T06:16:49;12.40;99.90
4811;DHT22;2419;51.276;6.472;2022-10-22T06:19:19;12.40;99.90
4811;DHT22;2419;51.276;6.472;2022-10-22T06:21:47;12.40;99.90
4811;DHT22;2419;51.276;6.472;2022-10-22T06:24:15;12.40;99.90
4811;DHT22;2419;51.276;6.472;2022-10-22T06:26:43;12.50;99.90
4811;DHT22;2419;51.276;6.472;2022-10-22T06:29:11;12.50;99.90
4811;DHT22;2419;51.276;6.472;2022-10-22T06:31:41;12.50;99.90
4811;DHT22;2419;51.276;6.472;2022-10-22T06:34:11;12.50;99.90
4811;DHT22;2419;51.276;6.472;2022-10-22T06:36:39;12.60;99.90
4811;DHT22;2419;51.276;6.472;2022-10-22T06:39:10;12.70;99.90
4811;DHT22;2419;51.276;6.472;2022-10-22T06:41:38;12.70;99.90
4811;DHT22;2419;51.276;6.472;2022-10-22T06:44:06;12.90;99.90
4811;DHT22;2419;51.276;6.472;2022-10-22T06:46:34;12.90;99.90
4811;DHT22;2419;51.276;6.472;2022-10-22T06:49:11;13.10;99.90
4811;DHT22;2419;51.276;6.472;2022-10-22T06:51:40;13.40;99.90
4811;DHT22;2419;51.276;6.472;2022-10-22T06:54:08;13.50;99.90
4811;DHT22;2419;51.276;6.472;2022-10-22T06:56:36;13.60;99.90
4811;DHT22;2419;51.276;6.472;2022-10-22T06:59:04;13.80;99.90
4811;DHT22;2419;51.276;6.472;2022-10-22T07:01:33;13.80;99.90
4811;DHT22;2419;51.276;6.472;2022-10-22T07:04:03;13.70;99.90
4811;DHT22;2419;51.276;6.472;2022-10-22T07:06:32;13.70;99.90
4811;DHT22;2419;51.276;6.472;2022-10-22T07:09:00;13.70;99.90
4811;DHT22;2419;51.276;6.472;2022-10-22T07:11:31;13.80;99.90
4811;DHT22;2419;51.276;6.472;2022-10-22T07:14:04;13.80;99.90
4811;DHT22;2419;51.276;6.472;2022-10-22T07:16:32;13.80;99.90
4811;DHT22;2419;51.276;6.472;2022-10-22T07:19:00;13.80;99.90
4811;DHT22;2419;51.276;6.472;2022-10-22T07:21:29;13.80;99.90
4811;DHT22;2419;51.276;6.472;2022-10-22T07:23:59;13.80;99.90
4811;DHT22;2419;51.276;6.472;2022-10-22T07:26:28;13.80;99.90
4811;DHT22;2419;51.276;6.472;2022-10-22T07:28:58;13.80;99.90
4811;DHT22;2419;51.276;6.472;2022-10-22T07:31:27;13.90;99.90
4811;DHT22;2419;51.276;6.472;2022-10-22T07:33:55;13.90;99.90
4811;DHT22;2419;51.276;6.472;2022-10-22T07:36:23;13.90;99.90
4811;DHT22;2419;51.276;6.472;2022-10-22T07:38:55;14.00;99.90
4811;DHT22;2419;51.276;6.472;2022-10-22T07:41:26;14.00;99.90
4811;DHT22;2419;51.276;6.472;2022-10-22T07:43:54;14.10;99.90
4811;DHT22;2419;51.276;6.472;2022-10-22T07:46:23;14.30;99.90
4811;DHT22;2419;51.276;6.472;2022-10-22T07:48:51;14.40;99.90
4811;DHT22;2419;51.276;6.472;2022-10-22T07:51:19;14.40;99.90
4811;DHT22;2419;51.276;6.472;2022-10-22T07:53:47;14.40;99.90
4811;DHT22;2419;51.276;6.472;2022-10-22T07:56:15;14.40;99.90
4811;DHT22;2419;51.276;6.472;2022-10-22T07:58:44;14.50;99.90
4811;DHT22;2419;51.276;6.472;2022-10-22T08:01:13;14.50;99.90
4811;DHT22;2419;51.276;6.472;2022-10-22T08:03:41;14.60;99.90
4811;DHT22;2419;51.276;6.472;2022-10-22T08:06:10;14.70;99.90
4811;DHT22;2419;51.276;6.472;2022-10-22T08:08:39;14.70;99.90
4811;DHT22;2419;51.276;6.472;2022-10-22T08:11:09;14.80;99.90
4811;DHT22;2419;51.276;6.472;2022-10-22T08:13:37;14.90;99.90
4811;DHT22;2419;51.276;6.472;2022-10-22T08:16:12;15.00;99.90
4811;DHT22;2419;51.276;6.472;2022-10-22T08:18:41;15.20;99.90
4811;DHT22;2419;51.276;6.472;2022-10-22T08:21:09;15.30;99.90
4811;DHT22;2419;51.276;6.472;2022-10-22T08:23:38;15.40;99.90
4811;DHT22;2419;51.276;6.472;2022-10-22T08:26:06;15.50;99.90
4811;DHT22;2419;51.276;6.472;2022-10-22T08:28:34;15.60;99.90
4811;DHT22;2419;51.276;6.472;2022-10-22T08:31:04;15.60;99.90
4811;DHT22;2419;51.276;6.472;2022-10-22T08:33:34;15.70;99.90
4811;DHT22;2419;51.276;6.472;2022-10-22T08:36:05;15.90;99.90
4811;DHT22;2419;51.276;6.472;2022-10-22T08:38:33;15.90;99.90
4811;DHT22;2419;51.276;6.472;2022-10-22T08:41:08;16.10;99.90
4811;DHT22;2419;51.276;6.472;2022-10-22T08:43:57;16.20;99.90
4811;DHT22;2419;51.276;6.472;2022-10-22T08:46:42;16.20;99.90
4811;DHT22;2419;51.276;6.472;2022-10-22T08:49:19;16.30;99.90
4811;DHT22;2419;51.276;6.472;2022-10-22T08:51:48;16.30;99.90
4811;DHT22;2419;51.276;6.472;2022-10-22T08:54:24;16.50;99.90
4811;DHT22;2419;51.276;6.472;2022-10-22T08:57:12;16.50;99.90
4811;DHT22;2419;51.276;6.472;2022-10-22T08:59:49;16.50;99.90
4811;DHT22;2419;51.276;6.472;2022-10-22T09:02:32;16.50;99.90
4811;DHT22;2419;51.276;6.472;2022-10-22T09:05:15;16.40;99.90
4811;DHT22;2419;51.276;6.472;2022-10-22T09:07:44;16.30;99.90
4811;DHT22;2419;51.276;6.472;2022-10-22T09:10:16;16.40;99.90
4811;DHT22;2419;51.276;6.472;2022-10-22T09:12:46;16.30;99.90
4811;DHT22;2419;51.276;6.472;2022-10-22T09:15:16;16.40;99.90
4811;DHT22;2419;51.276;6.472;2022-10-22T09:17:53;16.40;99.90
4811;DHT22;2419;51.276;6.472;2022-10-22T09:20:33;16.50;99.90
4811;DHT22;2419;51.276;6.472;2022-10-22T09:23:23;16.50;99.90
4811;DHT22;2419;51.276;6.472;2022-10-22T09:25:53;16.70;99.90
4811;DHT22;2419;51.276;6.472;2022-10-22T09:28:23;16.80;99.90
4811;DHT22;2419;51.276;6.472;2022-10-22T09:30:51;16.80;99.90
4811;DHT22;2419;51.276;6.472;2022-10-22T09:33:23;16.90;99.90
4811;DHT22;2419;51.276;6.472;2022-10-22T09:35:55;16.80;99.90
4811;DHT22;2419;51.276;6.472;2022-10-22T09:38:26;16.80;99.90
4811;DHT22;2419;51.276;6.472;2022-10-22T09:40:57;16.90;99.90
4811;DHT22;2419;51.276;6.472;2022-10-22T09:43:25;17.00;99.90
4811;DHT22;2419;51.276;6.472;2022-10-22T09:45:58;17.20;99.90
4811;DHT22;2419;51.276;6.472;2022-10-22T09:48:29;17.20;99.90
4811;DHT22;2419;51.276;6.472;2022-10-22T09:51:04;17.30;99.90
4811;DHT22;2419;51.276;6.472;2022-10-22T09:53:37;17.20;99.90
4811;DHT22;2419;51.276;6.472;2022-10-22T09:56:12;17.20;99.90
4811;DHT22;2419;51.276;6.472;2022-10-22T09:58:44;17.20;99.90
4811;DHT22;2419;51.276;6.472;2022-10-22T10:01:17;17.10;99.90
4811;DHT22;2419;51.276;6.472;2022-10-22T10:03:47;17.20;99.90
4811;DHT22;2419;51.276;6.472;2022-10-22T10:06:21;17.40;99.90
4811;DHT22;2419;51.276;6.472;2022-10-22T10:08:51;17.60;99.90
4811;DHT22;2419;51.276;6.472;2022-10-22T10:11:27;17.50;99.90
4811;DHT22;2419;51.276;6.472;2022-10-22T10:14:07;17.40;99.90
4811;DHT22;2419;51.276;6.472;2022-10-22T10:16:47;17.50;99.90
4811;DHT22;2419;51.276;6.472;2022-10-22T10:19:33;17.40;99.90
4811;DHT22;2419;51.276;6.472;2022-10-22T10:22:14;17.60;99.90
4811;DHT22;2419;51.276;6.472;2022-10-22T10:24:59;17.50;99.90
4811;DHT22;2419;51.276;6.472;2022-10-22T10:27:35;17.40;99.90
4811;DHT22;2419;51.276;6.472;2022-10-22T10:30:10;17.40;99.90
4811;DHT22;2419;51.276;6.472;2022-10-22T10:32:57;17.40;99.90
4811;DHT22;2419;51.276;6.472;2022-10-22T10:35:35;17.40;99.90
4811;DHT22;2419;51.276;6.472;2022-10-22T10:38:22;17.40;99.90
4811;DHT22;2419;51.276;6.472;2022-10-22T10:41:03;17.40;99.90
4811;DHT22;2419;51.276;6.472;2022-10-22T10:43:37;17.40;99.90
4811;DHT22;2419;51.276;6.472;2022-10-22T10:46:15;17.40;99.90
4811;DHT22;2419;51.276;6.472;2022-10-22T10:48:48;17.50;99.90
4811;DHT22;2419;51.276;6.472;2022-10-22T10:51:31;17.60;99.90
4811;DHT22;2419;51.276;6.472;2022-10-22T10:54:16;17.50;99.90
4811;DHT22;2419;51.276;6.472;2022-10-22T10:56:49;17.40;99.90
4811;DHT22;2419;51.276;6.472;2022-10-22T10:59:28;17.30;99.90
4811;DHT22;2419;51.276;6.472;2022-10-22T11:02:13;17.40;99.90
4811;DHT22;2419;51.276;6.472;2022-10-22T11:07:41;17.50;99.90
4811;DHT22;2419;51.276;6.472;2022-10-22T11:10:26;17.50;99.90
4811;DHT22;2419;51.276;6.472;2022-10-22T11:13:00;17.50;99.90
4811;DHT22;2419;51.276;6.472;2022-10-22T11:15:31;17.50;99.90
4811;DHT22;2419;51.276;6.472;2022-10-22T11:18:07;17.40;99.90
4811;DHT22;2419;51.276;6.472;2022-10-22T11:20:51;17.50;99.90
4811;DHT22;2419;51.276;6.472;2022-10-22T11:23:24;17.60;99.90
4811;DHT22;2419;51.276;6.472;2022-10-22T11:25:55;17.70;99.90
4811;DHT22;2419;51.276;6.472;2022-10-22T11:28:27;17.70;99.90
4811;DHT22;2419;51.276;6.472;2022-10-22T11:31:00;17.70;99.90
4811;DHT22;2419;51.276;6.472;2022-10-22T11:33:35;17.70;99.90
4811;DHT22;2419;51.276;6.472;2022-10-22T11:36:07;17.60;99.90
4811;DHT22;2419;51.276;6.472;2022-10-22T11:38:37;17.80;99.90
4811;DHT22;2419;51.276;6.472;2022-10-22T11:41:11;17.70;99.90
4811;DHT22;2419;51.276;6.472;2022-10-22T11:43:56;17.70;99.90
4811;DHT22;2419;51.276;6.472;2022-10-22T11:46:37;17.70;99.90
4811;DHT22;2419;51.276;6.472;2022-10-22T11:49:16;17.80;99.90
4811;DHT22;2419;51.276;6.472;2022-10-22T11:51:45;17.70;99.90
4811;DHT22;2419;51.276;6.472;2022-10-22T11:54:30;17.60;99.90
4811;DHT22;2419;51.276;6.472;2022-10-22T11:57:19;17.60;99.90
4811;DHT22;2419;51.276;6.472;2022-10-22T11:59:50;17.60;99.90
4811;DHT22;2419;51.276;6.472;2022-10-22T12:02:39;17.50;99.90
4811;DHT22;2419;51.276;6.472;2022-10-22T12:05:31;17.70;99.90
4811;DHT22;2419;51.276;6.472;2022-10-22T12:08:11;17.60;99.90
4811;DHT22;2419;51.276;6.472;2022-10-22T12:10:54;17.70;99.90
4811;DHT22;2419;51.276;6.472;2022-10-22T12:13:26;17.50;99.90
4811;DHT22;2419;51.276;6.472;2022-10-22T12:15:57;17.60;99.90
4811;DHT22;2419;51.276;6.472;2022-10-22T12:18:28;17.40;99.90
4811;DHT22;2419;51.276;6.472;2022-10-22T12:20:58;17.60;99.90
4811;DHT22;2419;51.276;6.472;2022-10-22T12:23:31;17.70;99.90
4811;DHT22;2419;51.276;6.472;2022-10-22T12:26:02;17.80;99.90
4811;DHT22;2419;51.276;6.472;2022-10-22T12:28:38;17.90;99.90
4811;DHT22;2419;51.276;6.472;2022-10-22T12:31:14;18.10;99.90
4811;DHT22;2419;51.276;6.472;2022-10-22T12:33:43;18.20;99.90
4811;DHT22;2419;51.276;6.472;2022-10-22T12:36:15;18.10;99.90
4811;DHT22;2419;51.276;6.472;2022-10-22T12:38:45;18.10;99.90
4811;DHT22;2419;51.276;6.472;2022-10-22T12:41:14;18.10;99.90
4811;DHT22;2419;51.276;6.472;2022-10-22T12:43:43;18.10;99.90
4811;DHT22;2419;51.276;6.472;2022-10-22T12:46:13;18.20;99.90
4811;DHT22;2419;51.276;6.472;2022-10-22T12:48:43;18.20;99.90
4811;DHT22;2419;51.276;6.472;2022-10-22T12:51:16;18.40;99.90
4811;DHT22;2419;51.276;6.472;2022-10-22T12:53:47;18.30;99.90
4811;DHT22;2419;51.276;6.472;2022-10-22T12:56:21;18.30;99.90
4811;DHT22;2419;51.276;6.472;2022-10-22T12:58:55;18.40;99.90
4811;DHT22;2419;51.276;6.472;2022-10-22T13:01:26;18.30;99.90
4811;DHT22;2419;51.276;6.472;2022-10-22T13:04:06;18.40;99.90
4811;DHT22;2419;51.276;6.472;2022-10-22T13:06:46;18.50;99.90
4811;DHT22;2419;51.276;6.472;2022-10-22T13:09:17;18.20;99.90
4811;DHT22;2419;51.276;6.472;2022-10-22T13:11:55;18.10;99.90
4811;DHT22;2419;51.276;6.472;2022-10-22T13:14:29;18.10;99.90
4811;DHT22;2419;51.276;6.472;2022-10-22T13:17:12;18.20;99.90
4811;DHT22;2419;51.276;6.472;2022-10-22T13:19:44;18.10;99.90
4811;DHT22;2419;51.276;6.472;2022-10-22T13:22:37;18.10;99.90
4811;DHT22;2419;51.276;6.472;2022-10-22T13:25:21;18.10;99.90
4811;DHT22;2419;51.276;6.472;2022-10-22T13:27:51;18.00;99.90
4811;DHT22;2419;51.276;6.472;2022-10-22T13:30:23;17.90;99.90
4811;DHT22;2419;51.276;6.472;2022-10-22T13:32:53;17.80;99.90
4811;DHT22;2419;51.276;6.472;2022-10-22T13:35:23;17.80;99.90
4811;DHT22;2419;51.276;6.472;2022-10-22T13:37:52;17.80;99.90
4811;DHT22;2419;51.276;6.472;2022-10-22T13:40:20;17.70;99.90
4811;DHT22;2419;51.276;6.472;2022-10-22T13:42:48;17.70;99.90
4811;DHT22;2419;51.276;6.472;2022-10-22T13:45:17;17.60;99.90
4811;DHT22;2419;51.276;6.472;2022-10-22T13:47:49;17.50;99.90
4811;DHT22;2419;51.276;6.472;2022-10-22T13:50:20;17.50;99.90
4811;DHT22;2419;51.276;6.472;2022-10-22T13:52:50;17.70;99.90
4811;DHT22;2419;51.276;6.472;2022-10-22T13:55:21;17.70;99.90
4811;DHT22;2419;51.276;6.472;2022-10-22T13:57:52;17.70;99.90
4811;DHT22;2419;51.276;6.472;2022-10-22T14:00:22;17.70;99.90
4811;DHT22;2419;51.276;6.472;2022-10-22T14:02:53;17.90;99.90
4811;DHT22;2419;51.276;6.472;2022-10-22T14:05:23;17.80;99.90
4811;DHT22;2419;51.276;6.472;2022-10-22T14:07:51;17.70;99.90
4811;DHT22;2419;51.276;6.472;2022-10-22T14:10:21;17.90;99.90
4811;DHT22;2419;51.276;6.472;2022-10-22T14:12:50;18.00;99.90
4811;DHT22;2419;51.276;6.472;2022-10-22T14:15:21;18.20;99.90
4811;DHT22;2419;51.276;6.472;2022-10-22T14:17:54;18.30;99.90
4811;DHT22;2419;51.276;6.472;2022-10-22T14:20:25;18.30;99.90
4811;DHT22;2419;51.276;6.472;2022-10-22T14:22:54;18.30;99.90
4811;DHT22;2419;51.276;6.472;2022-10-22T14:25:25;18.40;99.90
4811;DHT22;2419;51.276;6.472;2022-10-22T14:27:53;18.30;99.90
4811;DHT22;2419;51.276;6.472;2022-10-22T14:30:23;18.20;99.90
4811;DHT22;2419;51.276;6.472;2022-10-22T14:32:53;18.40;99.90
4811;DHT22;2419;51.276;6.472;2022-10-22T14:35:21;18.60;99.90
4811;DHT22;2419;51.276;6.472;2022-10-22T14:37:50;18.70;99.90
4811;DHT22;2419;51.276;6.472;2022-10-22T14:40:19;18.60;99.90
4811;DHT22;2419;51.276;6.472;2022-10-22T14:42:48;18.50;99.90
4811;DHT22;2419;51.276;6.472;2022-10-22T14:45:18;18.40;99.90
4811;DHT22;2419;51.276;6.472;2022-10-22T14:47:47;18.20;99.90
4811;DHT22;2419;51.276;6.472;2022-10-22T14:50:17;18.10;99.90
4811;DHT22;2419;51.276;6.472;2022-10-22T14:52:46;18.20;99.90
4811;DHT22;2419;51.276;6.472;2022-10-22T14:55:15;18.30;99.90
4811;DHT22;2419;51.276;6.472;2022-10-22T14:57:44;18.30;99.90
4811;DHT22;2419;51.276;6.472;2022-10-22T15:00:14;18.40;99.90
4811;DHT22;2419;51.276;6.472;2022-10-22T15:02:43;18.30;99.90
4811;DHT22;2419;51.276;6.472;2022-10-22T15:05:11;18.40;99.90
4811;DHT22;2419;51.276;6.472;2022-10-22T15:07:40;18.40;99.90
4811;DHT22;2419;51.276;6.472;2022-10-22T15:10:09;18.40;99.90
4811;DHT22;2419;51.276;6.472;2022-10-22T15:12:37;18.30;99.90
4811;DHT22;2419;51.276;6.472;2022-10-22T15:15:06;18.30;99.90
4811;DHT22;2419;51.276;6.472;2022-10-22T15:17:34;18.20;99.90
4811;DHT22;2419;51.276;6.472;2022-10-22T15:20:03;18.20;99.90
4811;DHT22;2419;51.276;6.472;2022-10-22T15:22:32;18.10;99.90
4811;DHT22;2419;51.276;6.472;2022-10-22T15:25:05;18.00;99.90
4811;DHT22;2419;51.276;6.472;2022-10-22T15:27:34;17.90;99.90
4811;DHT22;2419;51.276;6.472;2022-10-22T15:30:03;17.90;99.90
4811;DHT22;2419;51.276;6.472;2022-10-22T15:32:31;17.80;99.90
4811;DHT22;2419;51.276;6.472;2022-10-22T15:35:00;17.70;99.90
4811;DHT22;2419;51.276;6.472;2022-10-22T15:37:28;17.60;99.90
4811;DHT22;2419;51.276;6.472;2022-10-22T15:39:56;17.60;99.90
4811;DHT22;2419;51.276;6.472;2022-10-22T15:42:27;17.40;99.90
4811;DHT22;2419;51.276;6.472;2022-10-22T15:44:56;17.30;99.90
4811;DHT22;2419;51.276;6.472;2022-10-22T15:47:25;17.30;99.90
4811;DHT22;2419;51.276;6.472;2022-10-22T15:49:55;17.30;99.90
4811;DHT22;2419;51.276;6.472;2022-10-22T15:52:23;17.10;99.90
4811;DHT22;2419;51.276;6.472;2022-10-22T15:54:51;17.00;99.90
4811;DHT22;2419;51.276;6.472;2022-10-22T15:57:20;17.00;99.90
4811;DHT22;2419;51.276;6.472;2022-10-22T15:59:49;16.90;99.90
4811;DHT22;2419;51.276;6.472;2022-10-22T16:02:17;16.70;99.90
4811;DHT22;2419;51.276;6.472;2022-10-22T16:04:46;16.60;99.90
4811;DHT22;2419;51.276;6.472;2022-10-22T16:07:14;16.50;99.90
4811;DHT22;2419;51.276;6.472;2022-10-22T16:09:46;16.20;99.90
4811;DHT22;2419;51.276;6.472;2022-10-22T16:12:15;16.10;99.90
4811;DHT22;2419;51.276;6.472;2022-10-22T16:14:43;16.00;99.90
4811;DHT22;2419;51.276;6.472;2022-10-22T16:17:12;15.80;99.90
4811;DHT22;2419;51.276;6.472;2022-10-22T16:19:40;15.60;99.90
4811;DHT22;2419;51.276;6.472;2022-10-22T16:22:09;15.50;99.90
4811;DHT22;2419;51.276;6.472;2022-10-22T16:24:39;15.30;99.90
4811;DHT22;2419;51.276;6.472;2022-10-22T16:27:08;15.20;99.90
4811;DHT22;2419;51.276;6.472;2022-10-22T16:29:37;15.20;99.90
4811;DHT22;2419;51.276;6.472;2022-10-22T16:32:05;15.00;99.90